Time;durP1;ratioP1;P1;durP2;ratioP2;P2;SDS_P1;SDS_P2;PMS_P1;PMS_P2;Temp;Humidity;BMP_temperature;BMP_pressure;BME280_temperature;BME280_humidity;BME280_pressure;Samples;Min_cycle;Max_cycle;Signal;HPM_P1;HPM_P2
2021/08/20 00:00:13;;;;;;;3.63;2.28;;;19.10;75.80;;;17.98;76.14;96037.03;4917932;29;20062;-71
2021/08/20 00:02:39;;;;;;;5.13;2.30;;;19.20;75.20;;;17.98;75.31;96030.91;4917123;29;20040;-71
2021/08/20 00:05:05;;;;;;;4.07;2.45;;;19.10;75.30;;;17.97;75.67;96040.75;4904481;29;20115;-71
2021/08/20 00:07:31;;;;;;;3.25;2.30;;;19.10;75.30;;;17.94;75.55;96035.09;4910795;29;20044;-71
2021/08/20 00:09:57;;;;;;;4.15;2.30;;;19.10;75.20;;;17.92;76.28;96037.19;4907003;29;20035;-72
2021/08/20 00:12:23;;;;;;;2.50;2.00;;;19.10;75.20;;;17.89;75.76;96032.34;4907213;29;20423;-71
2021/08/20 00:14:49;;;;;;;4.00;2.30;;;19.10;75.40;;;17.89;75.92;96040.31;4894395;29;20052;-71
2021/08/20 00:17:15;;;;;;;3.58;2.47;;;19.10;75.40;;;17.90;76.28;96037.41;4863638;29;20036;-71
2021/08/20 00:19:41;;;;;;;4.13;2.20;;;19.10;75.50;;;17.88;75.59;96042.16;4881390;29;20575;-71
2021/08/20 00:22:07;;;;;;;3.72;2.05;;;19.10;75.50;;;17.88;76.42;96038.66;4890859;29;20096;-71
2021/08/20 00:24:34;;;;;;;3.53;2.55;;;19.00;75.60;;;17.86;75.69;96027.44;4913004;29;20039;-71
2021/08/20 00:26:59;;;;;;;2.65;2.30;;;19.00;75.80;;;17.87;76.20;96034.38;4916195;29;20032;-71
2021/08/20 00:29:25;;;;;;;3.10;2.13;;;19.00;75.50;;;17.85;76.28;96031.97;4915435;29;20038;-71
2021/08/20 00:31:51;;;;;;;3.45;2.45;;;19.10;75.30;;;17.85;75.56;96036.47;4927511;29;20048;-71
2021/08/20 00:34:17;;;;;;;3.75;2.13;;;19.10;75.10;;;17.81;76.52;96030.81;4888029;29;20131;-71
2021/08/20 00:36:42;;;;;;;3.42;2.65;;;19.10;75.20;;;17.82;76.12;96027.13;4917462;29;20029;-71
2021/08/20 00:39:08;;;;;;;3.30;2.60;;;19.00;75.40;;;17.78;75.87;96014.53;4910906;29;20059;-71
2021/08/20 00:41:34;;;;;;;3.25;2.47;;;19.00;75.60;;;17.78;76.52;96018.00;4911948;29;20072;-71
2021/08/20 00:44:00;;;;;;;6.68;3.03;;;19.00;75.60;;;17.77;75.94;96028.88;4929187;29;20084;-72
2021/08/20 00:46:26;;;;;;;4.00;2.42;;;19.00;75.80;;;17.77;76.83;96028.88;4911826;29;20123;-71
2021/08/20 00:48:51;;;;;;;3.72;2.42;;;19.00;75.70;;;17.76;76.98;96025.41;4900483;29;20036;-71
2021/08/20 00:51:26;;;;;;;5.55;2.47;;;19.00;76.10;;;17.73;77.69;96016.06;4931403;29;20511;-71
2021/08/20 00:53:53;;;;;;;4.32;2.90;;;18.90;76.30;;;17.73;76.66;96017.91;4927719;29;20043;-71
2021/08/20 00:56:18;;;;;;;3.92;2.50;;;19.00;76.20;;;17.73;77.14;96025.88;4914190;29;20035;-71
2021/08/20 00:58:44;;;;;;;4.13;2.92;;;18.90;76.20;;;17.72;77.20;96019.75;4912654;29;20063;-71
2021/08/20 01:01:11;;;;;;;3.97;2.60;;;19.00;76.40;;;17.72;77.58;96026.94;4909451;29;20042;-71
2021/08/20 01:03:37;;;;;;;3.67;2.45;;;19.00;76.70;;;17.69;76.98;96025.56;4913772;29;20413;-71
2021/08/20 01:06:04;;;;;;;3.35;2.55;;;18.90;76.80;;;17.69;77.36;96017.56;4915935;29;20036;-71
2021/08/20 01:08:36;;;;;;;2.88;2.20;;;18.90;77.10;;;17.68;78.10;96018.63;5089690;27;1212727;-70
2021/08/20 01:11:05;;;;;;;2.97;2.25;;;18.90;77.30;;;17.65;78.45;96019.06;5042897;28;20070;-71
2021/08/20 01:13:36;;;;;;;3.97;2.65;;;18.80;77.40;;;17.60;78.76;96008.28;5026800;28;20079;-70
2021/08/20 01:16:02;;;;;;;4.38;2.30;;;18.80;77.00;;;17.60;77.44;96016.28;5020089;28;20457;-71
2021/08/20 01:18:32;;;;;;;3.30;2.50;;;18.80;76.50;;;17.62;77.60;96010.72;4993384;28;20034;-71
2021/08/20 01:21:02;;;;;;;4.15;2.50;;;18.90;76.20;;;17.62;77.07;96016.84;5054628;28;20052;-71
2021/08/20 01:23:28;;;;;;;5.47;2.33;;;18.80;76.10;;;17.62;77.16;96022.16;5040366;28;20572;-71
2021/08/20 01:25:55;;;;;;;3.28;2.55;;;18.90;76.10;;;17.62;77.73;96018.69;5029806;28;20029;-71
2021/08/20 01:28:24;;;;;;;5.05;2.80;;;18.90;76.20;;;17.61;77.42;95999.28;5022943;28;20042;-70
2021/08/20 01:31:04;;;;;;;3.20;2.30;;;18.80;76.40;;;17.60;78.87;95991.53;5044304;28;20456;-71
2021/08/20 01:33:30;;;;;;;4.30;2.73;;;18.70;76.90;;;17.55;78.00;95986.13;5047191;28;20080;-71
2021/08/20 01:35:55;;;;;;;4.72;3.05;;;18.80;76.50;;;17.54;77.95;95990.63;5045028;28;20049;-70
2021/08/20 01:38:22;;;;;;;3.80;2.70;;;18.80;76.40;;;17.50;77.69;95984.16;5030830;28;20049;-70
2021/08/20 01:40:47;;;;;;;3.30;2.83;;;18.70;76.70;;;17.47;78.22;95992.63;5052956;28;20052;-71
2021/08/20 01:43:13;;;;;;;4.28;2.60;;;18.70;77.00;;;17.42;77.96;95981.84;5021054;28;20037;-71
2021/08/20 01:45:39;;;;;;;4.32;2.88;;;18.60;76.30;;;17.43;77.50;95994.13;5039370;28;20075;-71
2021/08/20 01:48:05;;;;;;;3.75;2.70;;;18.60;76.10;;;17.36;77.66;95986.25;5065146;28;20106;-71
2021/08/20 01:50:32;;;;;;;4.20;2.80;;;18.50;76.40;;;17.30;77.71;95989.88;5051032;28;20041;-71
2021/08/20 01:52:57;;;;;;;4.00;2.70;;;18.50;76.70;;;17.28;77.17;95999.13;5046937;28;20034;-71
2021/08/20 01:55:23;;;;;;;3.97;2.67;;;18.50;76.60;;;17.24;77.23;95997.97;5055456;28;20094;-70
2021/08/20 01:57:50;;;;;;;3.08;2.47;;;18.40;76.50;;;17.19;77.70;95987.22;5047943;28;20106;-71
2021/08/20 02:00:16;;;;;;;3.70;2.60;;;18.30;76.70;;;17.14;77.60;95996.69;5047974;28;20565;-70
2021/08/20 02:02:41;;;;;;;5.20;2.80;;;18.30;76.90;;;17.07;77.55;95990.69;5047778;28;20033;-71
2021/08/20 02:05:08;;;;;;;3.33;2.63;;;18.30;77.00;;;17.01;77.97;95994.28;5064798;28;20033;-71
2021/08/20 02:07:36;;;;;;;4.10;2.78;;;18.10;77.40;;;16.94;77.99;95990.91;5063544;28;20625;-71
2021/08/20 02:10:05;;;;;;;3.95;3.00;;;18.10;77.80;;;16.88;79.04;95991.84;5075261;28;20079;-71
2021/08/20 02:12:31;;;;;;;3.63;2.63;;;18.00;77.90;;;16.84;78.11;95988.84;5035942;28;20404;-71
2021/08/20 02:14:57;;;;;;;3.67;2.58;;;18.00;78.00;;;16.83;78.79;95991.75;5025144;28;20025;-71
2021/08/20 02:17:22;;;;;;;4.47;3.10;;;18.00;77.90;;;16.79;78.33;95990.59;5044441;28;20030;-70
2021/08/20 02:19:48;;;;;;;3.10;2.70;;;17.80;78.10;;;16.71;78.13;95983.75;5039772;28;20184;-70
2021/08/20 02:22:14;;;;;;;4.85;2.80;;;17.80;78.10;;;16.65;78.37;95983.84;4994404;28;20448;-71
2021/08/20 02:24:40;;;;;;;3.72;2.80;;;17.70;78.20;;;16.61;78.58;95985.34;5021829;28;20037;-72
2021/08/20 02:27:05;;;;;;;4.45;2.80;;;17.70;78.40;;;16.51;79.33;95984.03;5014546;28;20084;-71
2021/08/20 02:29:31;;;;;;;4.55;2.75;;;17.60;78.60;;;16.44;78.96;95980.69;5042957;28;20087;-70
2021/08/20 02:31:57;;;;;;;4.43;2.83;;;17.50;78.80;;;16.41;79.64;95975.84;5027091;28;20022;-69
2021/08/20 02:34:22;;;;;;;4.47;2.78;;;17.60;78.80;;;16.40;79.46;95986.69;5030995;28;20451;-71
2021/08/20 02:36:48;;;;;;;3.00;2.67;;;17.60;78.80;;;16.36;79.70;95983.69;5030746;28;20040;-71
2021/08/20 02:39:14;;;;;;;4.38;2.95;;;17.50;79.00;;;16.34;79.10;95980.44;5030743;28;20033;-71
2021/08/20 02:41:40;;;;;;;3.45;2.55;;;17.50;79.00;;;16.29;79.93;95985.59;5039865;28;20517;-69
2021/08/20 02:44:05;;;;;;;4.25;2.70;;;17.50;79.00;;;16.22;79.77;95979.59;5014432;28;20037;-65
2021/08/20 02:46:31;;;;;;;4.30;2.80;;;17.40;78.90;;;16.16;80.20;95980.50;5012344;28;20095;-65
2021/08/20 02:48:57;;;;;;;3.83;2.78;;;17.30;79.00;;;16.11;79.38;95980.38;5023729;28;20064;-69
2021/08/20 02:51:22;;;;;;;4.97;2.50;;;17.20;79.20;;;16.07;79.51;95977.38;5046208;28;20095;-65
2021/08/20 02:53:48;;;;;;;5.00;2.88;;;17.20;79.40;;;16.05;79.42;95968.00;5044936;28;20551;-67
2021/08/20 02:56:14;;;;;;;4.70;2.63;;;17.20;79.30;;;16.05;79.65;95984.72;5047887;28;20037;-67
2021/08/20 02:58:40;;;;;;;3.67;2.67;;;17.10;79.40;;;16.01;80.69;95980.09;5047623;28;20574;-67
2021/08/20 03:01:05;;;;;;;3.60;2.88;;;17.20;79.30;;;15.95;80.23;95979.19;5016512;28;20033;-68
2021/08/20 03:03:31;;;;;;;4.57;2.55;;;17.10;79.40;;;15.95;80.57;95978.38;5014849;28;20091;-67
2021/08/20 03:05:57;;;;;;;5.05;3.35;;;17.10;79.20;;;15.91;80.50;95983.31;5049746;28;20028;-67
2021/08/20 03:08:23;;;;;;;20.52;17.90;;;17.10;79.30;;;15.89;80.30;95980.09;5032981;28;20041;-67
2021/08/20 03:10:48;;;;;;;21.90;18.48;;;17.10;79.90;;;15.89;80.70;95983.53;5033398;28;20094;-67
2021/08/20 03:13:14;;;;;;;9.88;7.45;;;17.10;80.00;;;15.87;80.79;95982.97;5031108;28;20567;-67
2021/08/20 03:15:40;;;;;;;4.85;4.00;;;17.10;80.20;;;15.85;81.70;95979.72;5000528;28;20050;-67
2021/08/20 03:18:06;;;;;;;5.38;2.90;;;17.10;80.20;;;15.88;80.77;95979.28;4999912;28;20030;-67
2021/08/20 03:20:31;;;;;;;4.30;2.78;;;17.10;80.30;;;15.88;80.87;95979.28;5002378;28;20037;-67
2021/08/20 03:22:57;;;;;;;4.35;2.90;;;17.20;80.20;;;15.89;82.25;95980.88;5020773;28;20041;-67
2021/08/20 03:25:23;;;;;;;2.90;2.58;;;17.20;80.20;;;15.91;81.27;95992.09;5042140;28;20123;-67
2021/08/20 03:27:49;;;;;;;4.10;2.92;;;17.20;80.40;;;15.91;81.65;95984.13;5033474;28;20504;-68
2021/08/20 03:30:14;;;;;;;3.58;2.60;;;17.10;80.60;;;15.92;82.50;95995.53;5031623;28;20029;-66
2021/08/20 03:32:40;;;;;;;3.05;2.65;;;17.20;80.60;;;15.93;81.77;95995.31;5045570;28;20060;-67
2021/08/20 03:35:06;;;;;;;3.60;2.53;;;17.20;80.70;;;15.96;82.20;96001.22;5030788;28;20057;-68
2021/08/20 03:37:32;;;;;;;3.97;2.70;;;17.20;80.80;;;15.98;82.14;95999.13;5004495;28;20026;-67
2021/08/20 03:39:58;;;;;;;3.83;2.40;;;17.20;80.80;;;15.96;82.78;96002.00;5049374;28;20029;-67
2021/08/20 03:42:24;;;;;;;5.35;3.15;;;17.20;81.00;;;16.00;82.18;96005.03;5008472;28;20483;-67
2021/08/20 03:44:49;;;;;;;3.45;2.28;;;17.30;81.00;;;15.99;83.04;96003.41;5004438;28;20035;-68
2021/08/20 03:47:15;;;;;;;4.03;2.58;;;17.20;81.20;;;15.99;82.44;96003.41;5005394;28;20034;-66
2021/08/20 03:49:41;;;;;;;4.38;2.80;;;17.30;81.40;;;15.99;83.30;96006.88;5024060;28;20041;-72
2021/08/20 03:52:07;;;;;;;3.97;2.78;;;17.30;81.20;;;16.02;82.49;96013.56;5043194;28;20654;-67
2021/08/20 03:54:32;;;;;;;5.35;3.13;;;17.40;81.30;;;16.04;83.87;96016.81;5020123;28;20389;-66
2021/08/20 03:56:58;;;;;;;4.72;2.97;;;17.40;81.50;;;16.04;83.49;96016.81;5049767;28;20530;-66
2021/08/20 03:59:24;;;;;;;4.55;3.40;;;17.30;81.60;;;16.05;83.62;96021.06;5041387;28;20037;-67
2021/08/20 04:01:50;;;;;;;7.55;2.80;;;17.40;81.70;;;16.06;83.54;96022.69;5017878;28;20116;-67
2021/08/20 04:04:15;;;;;;;4.88;3.10;;;17.40;81.70;;;16.04;83.19;96020.25;4993699;28;20464;-67
2021/08/20 04:06:41;;;;;;;4.43;3.35;;;17.40;81.70;;;16.07;83.46;96026.97;5000761;28;20509;-66
2021/08/20 04:09:07;;;;;;;7.13;3.80;;;17.40;81.80;;;16.09;84.27;96035.53;5028531;28;20053;-66
2021/08/20 04:11:33;;;;;;;7.00;3.53;;;17.40;81.80;;;16.08;84.01;96034.72;5041321;28;20061;-67
2021/08/20 04:14:02;;;;;;;4.50;3.42;;;17.30;81.90;;;16.08;83.44;96032.06;5029519;28;20484;-66
2021/08/20 04:16:31;;;;;;;5.57;3.47;;;17.40;81.70;;;16.06;83.64;96031.47;5042245;28;20433;-66
2021/08/20 04:18:57;;;;;;;9.27;3.80;;;17.30;81.70;;;16.08;83.65;96036.56;5013453;28;20065;-67
2021/08/20 04:21:23;;;;;;;4.07;3.30;;;17.30;81.50;;;16.06;83.86;96030.66;5012993;28;20042;-66
2021/08/20 04:23:49;;;;;;;3.70;3.40;;;17.40;81.40;;;16.07;82.99;96035.75;5045918;28;20527;-67
2021/08/20 04:26:15;;;;;;;5.57;4.03;;;17.40;81.40;;;16.06;83.12;96034.09;5045718;28;20048;-67
2021/08/20 04:28:40;;;;;;;5.10;3.70;;;17.30;81.10;;;16.06;83.24;96038.59;5035236;28;20127;-67
2021/08/20 04:31:06;;;;;;;4.68;3.55;;;17.30;81.10;;;16.03;82.92;96039.06;5012153;28;20025;-66
2021/08/20 04:33:32;;;;;;;4.22;3.25;;;17.30;80.80;;;16.00;83.86;96044.81;5026572;28;20103;-66
2021/08/20 04:35:58;;;;;;;4.43;3.50;;;17.20;81.00;;;15.99;83.51;96046.66;5012838;28;20026;-67
2021/08/20 04:38:24;;;;;;;5.05;3.70;;;17.30;80.80;;;15.96;83.15;96038.34;4996147;28;20163;-66
2021/08/20 04:40:49;;;;;;;6.78;3.30;;;17.20;81.10;;;15.99;83.23;96045.84;4997997;28;20030;-67
2021/08/20 04:43:15;;;;;;;4.40;3.35;;;17.20;81.10;;;15.97;83.44;96046.06;5028486;28;20056;-66
2021/08/20 04:45:41;;;;;;;5.10;3.90;;;17.30;81.00;;;16.00;83.87;96050.13;5040069;28;20227;-67
2021/08/20 04:48:07;;;;;;;4.35;3.45;;;17.40;80.90;;;16.03;83.89;96057.63;5017514;28;20038;-67
2021/08/20 04:50:32;;;;;;;4.75;3.60;;;17.40;80.70;;;16.04;83.33;96053.94;5016926;28;20038;-67
2021/08/20 04:52:58;;;;;;;3.70;3.40;;;17.40;80.60;;;16.05;83.38;96053.72;5011809;28;20045;-67
2021/08/20 04:55:24;;;;;;;6.07;3.42;;;17.30;80.70;;;16.07;83.44;96050.84;5009886;28;20041;-66
2021/08/20 04:57:50;;;;;;;5.20;3.53;;;17.40;80.50;;;16.04;82.86;96052.09;5018488;28;20026;-66
2021/08/20 05:00:16;;;;;;;5.57;3.75;;;17.40;80.40;;;16.06;82.65;96049.22;5027955;28;20048;-67
2021/08/20 05:02:41;;;;;;;4.45;3.88;;;17.40;80.30;;;16.07;83.11;96040.22;4995231;28;20034;-67
2021/08/20 05:05:07;;;;;;;5.55;3.63;;;17.40;80.10;;;16.10;82.85;96039.81;5009182;28;20030;-67
2021/08/20 05:07:35;;;;;;;4.18;3.17;;;17.50;80.20;;;16.12;83.08;96048.34;5009724;28;20096;-67
2021/08/20 05:10:05;;;;;;;4.45;3.35;;;17.50;80.30;;;16.14;83.57;96048.94;5012264;28;20025;-66
2021/08/20 05:12:32;;;;;;;4.00;2.95;;;17.60;80.40;;;16.17;83.31;96051.94;5019361;28;20042;-68
2021/08/20 05:14:58;;;;;;;5.47;3.70;;;17.60;80.20;;;16.19;83.06;96049.88;5016505;28;20038;-66
2021/08/20 05:17:24;;;;;;;19.27;16.77;;;17.60;80.00;;;16.26;82.96;96060.38;5011358;28;20042;-67
2021/08/20 05:19:49;;;;;;;15.57;13.88;;;17.70;79.90;;;16.31;83.36;96063.19;5011802;28;20048;-67
2021/08/20 05:22:15;;;;;;;14.93;13.25;;;17.80;79.80;;;16.36;83.25;96060.66;5011900;28;20029;-67
2021/08/20 05:24:41;;;;;;;28.90;21.42;;;17.90;79.70;;;16.43;83.15;96066.69;5039475;28;20400;-67
2021/08/20 05:27:06;;;;;;;11.07;9.25;;;18.00;79.70;;;16.49;82.74;96070.28;5049665;28;20033;-67
2021/08/20 05:29:32;;;;;;;18.08;13.60;;;18.00;79.10;;;16.57;82.80;96069.16;5047853;28;20097;-66
2021/08/20 05:31:58;;;;;;;13.32;11.23;;;18.10;79.00;;;16.61;82.82;96068.47;5026689;28;20030;-67
2021/08/20 05:34:24;;;;;;;11.85;10.45;;;18.20;78.80;;;16.67;82.44;96064.94;5008547;28;20030;-67
2021/08/20 05:36:49;;;;;;;10.70;8.57;;;18.20;78.60;;;16.73;82.64;96071.16;5025211;28;20050;-67
2021/08/20 05:39:15;;;;;;;8.88;7.05;;;18.30;78.70;;;16.80;82.55;96077.22;5025116;28;20409;-69
2021/08/20 05:41:41;;;;;;;17.63;13.45;;;18.30;78.70;;;16.85;82.42;96072.00;5033381;28;20030;-67
2021/08/20 05:44:07;;;;;;;31.42;26.52;;;18.40;78.40;;;16.90;82.19;96066.81;5009941;28;20049;-67
2021/08/20 05:46:32;;;;;;;19.52;14.32;;;18.50;77.70;;;16.95;81.97;96068.78;5008522;28;20042;-68
2021/08/20 05:48:58;;;;;;;11.18;8.82;;;18.60;77.60;;;16.99;81.77;96068.13;5026166;28;20394;-67
2021/08/20 05:51:25;;;;;;;24.80;22.05;;;18.60;77.50;;;17.07;81.91;96073.06;5010670;28;20099;-68
2021/08/20 05:53:51;;;;;;;10.25;9.07;;;18.70;77.30;;;17.13;81.47;96074.81;5013417;28;20029;-67
2021/08/20 05:56:17;;;;;;;15.65;14.02;;;18.70;76.80;;;17.18;81.73;96070.66;5036172;28;20089;-67
2021/08/20 05:58:43;;;;;;;5.65;4.85;;;18.80;76.60;;;17.26;80.80;96065.00;5023290;28;20531;-67
2021/08/20 06:01:08;;;;;;;4.55;3.55;;;19.00;76.30;;;17.31;80.79;96073.09;5029460;28;20033;-68
2021/08/20 06:03:34;;;;;;;4.65;3.70;;;19.00;75.70;;;17.41;81.10;96075.97;5040910;28;20088;-68
2021/08/20 06:06:00;;;;;;;4.43;3.40;;;19.20;75.60;;;17.51;79.93;96073.53;5033135;28;20633;-67
2021/08/20 06:08:26;;;;;;;5.25;3.17;;;19.30;74.40;;;17.61;80.27;96068.44;5023020;28;20058;-67
2021/08/20 06:10:52;;;;;;;4.05;3.10;;;19.60;74.20;;;17.74;79.42;96076.19;5011818;28;20061;-67
2021/08/20 06:13:18;;;;;;;4.60;3.25;;;19.60;72.90;;;17.88;79.75;96073.25;5044079;28;20100;-67
2021/08/20 06:15:43;;;;;;;5.35;3.40;;;19.90;72.60;;;18.03;79.13;96076.25;5014882;28;20440;-68
2021/08/20 06:18:09;;;;;;;6.75;3.08;;;20.10;72.20;;;18.17;78.91;96066.94;5051206;28;20091;-67
2021/08/20 06:20:35;;;;;;;5.55;3.47;;;20.30;71.60;;;18.34;77.78;96067.00;5067697;28;20083;-67
2021/08/20 06:23:01;;;;;;;6.80;3.70;;;20.40;70.60;;;18.46;77.81;96074.91;5034932;28;20046;-67
2021/08/20 06:25:26;;;;;;;16.13;11.45;;;20.40;70.20;;;18.55;77.07;96074.28;5051018;28;20061;-68
2021/08/20 06:27:52;;;;;;;23.35;18.92;;;20.60;70.00;;;18.69;76.16;96085.50;5052722;28;20040;-68
2021/08/20 06:30:18;;;;;;;9.90;6.80;;;20.70;69.50;;;18.79;75.52;96075.03;5050792;28;20601;-68
2021/08/20 06:32:43;;;;;;;16.08;12.23;;;20.80;68.50;;;18.84;76.59;96069.78;5034615;28;20037;-68
2021/08/20 06:35:09;;;;;;;8.05;6.60;;;20.90;68.50;;;19.01;75.70;96085.78;5034518;28;20048;-68
2021/08/20 06:37:35;;;;;;;7.03;5.60;;;21.10;68.30;;;19.15;75.39;96079.06;5050684;28;20086;-67
2021/08/20 06:40:02;;;;;;;5.72;4.18;;;21.30;68.40;;;19.29;74.09;96082.22;5050945;28;20021;-68
2021/08/20 06:42:28;;;;;;;5.57;3.97;;;21.50;67.30;;;19.40;74.01;96085.81;5067438;28;20045;-68
2021/08/20 06:44:54;;;;;;;6.13;3.67;;;21.70;65.00;;;19.56;73.83;96085.03;5051082;28;20079;-67
2021/08/20 06:47:19;;;;;;;4.68;3.90;;;21.90;64.50;;;19.73;72.31;96093.00;5050392;28;20078;-67
2021/08/20 06:49:45;;;;;;;3.80;3.40;;;22.00;64.10;;;19.87;72.70;96091.56;5047475;28;20029;-67
2021/08/20 06:52:11;;;;;;;5.47;3.45;;;22.10;63.80;;;20.01;71.56;96092.81;5034068;28;20519;-67
2021/08/20 06:54:37;;;;;;;12.45;8.32;;;22.20;64.50;;;20.10;71.03;96088.66;5050935;28;20032;-67
2021/08/20 06:57:03;;;;;;;5.75;4.60;;;22.10;62.50;;;20.16;71.04;96090.34;5050800;28;20037;-67
2021/08/20 06:59:28;;;;;;;23.73;20.35;;;22.10;62.60;;;20.19;70.35;96089.03;5050265;28;20098;-68
2021/08/20 07:01:54;;;;;;;17.98;14.73;;;22.10;63.00;;;20.26;69.61;96094.19;5029950;28;20128;-67
2021/08/20 07:04:20;;;;;;;6.63;6.00;;;22.30;63.30;;;20.33;69.79;96086.78;5014106;28;20048;-67
2021/08/20 07:06:45;;;;;;;4.75;4.13;;;22.20;62.70;;;20.34;69.21;96089.19;5014023;28;20045;-67
2021/08/20 07:09:11;;;;;;;5.43;3.55;;;22.20;62.70;;;20.37;69.48;96087.91;5032062;28;20026;-67
2021/08/20 07:11:37;;;;;;;5.43;4.20;;;22.40;63.30;;;20.49;68.88;96091.25;5011123;28;20063;-67
2021/08/20 07:14:02;;;;;;;5.18;4.25;;;22.40;62.30;;;20.54;68.74;96080.63;5034097;28;20511;-68
2021/08/20 07:16:28;;;;;;;5.97;5.22;;;22.50;62.60;;;20.59;69.55;96088.69;5050430;28;20575;-67
2021/08/20 07:18:54;;;;;;;9.60;8.02;;;22.60;62.80;;;20.62;69.00;96085.53;5033983;28;20029;-67
2021/08/20 07:21:20;;;;;;;9.70;5.55;;;22.60;63.00;;;20.66;69.25;96086.63;5033344;28;20091;-67
2021/08/20 07:23:45;;;;;;;5.65;4.68;;;22.60;63.30;;;20.72;69.39;96093.63;5033439;28;20040;-67
2021/08/20 07:26:11;;;;;;;6.53;4.78;;;22.60;63.50;;;20.74;69.05;96090.72;5036326;28;20115;-67
2021/08/20 07:28:37;;;;;;;7.55;6.43;;;22.70;63.10;;;20.82;68.30;96097.44;5048339;28;20094;-68
2021/08/20 07:31:03;;;;;;;6.15;5.53;;;22.80;62.30;;;20.88;68.48;96091.13;5033123;28;20408;-67
2021/08/20 07:33:29;;;;;;;11.52;6.43;;;22.80;62.70;;;20.90;67.46;96089.78;5032988;28;20041;-67
2021/08/20 07:35:55;;;;;;;10.85;7.50;;;22.90;61.10;;;21.00;67.22;96105.09;5017119;28;20040;-67
2021/08/20 07:38:20;;;;;;;10.70;8.93;;;23.00;60.40;;;21.06;67.32;96099.56;5049032;28;20523;-67
2021/08/20 07:40:46;;;;;;;13.23;11.50;;;23.00;60.80;;;21.12;66.19;96097.72;5050420;28;20036;-67
2021/08/20 07:43:12;;;;;;;12.05;9.90;;;23.00;58.90;;;21.09;66.44;96103.59;5017150;28;20037;-67
2021/08/20 07:45:38;;;;;;;20.05;16.42;;;22.90;60.10;;;21.12;67.16;96097.72;5028839;28;20095;-67
2021/08/20 07:48:04;;;;;;;10.75;8.45;;;23.00;61.20;;;21.20;66.90;96105.28;5012746;28;20074;-67
2021/08/20 07:50:29;;;;;;;6.88;4.90;;;23.10;61.60;;;21.26;66.70;96103.47;5037118;28;20137;-67
2021/08/20 07:52:55;;;;;;;9.18;4.90;;;23.30;60.90;;;21.32;66.58;96107.81;5021982;28;20543;-67
2021/08/20 07:55:22;;;;;;;5.45;4.50;;;23.30;60.30;;;21.35;66.02;96096.59;5016387;28;20068;-68
2021/08/20 07:57:52;;;;;;;5.88;4.60;;;23.20;58.70;;;21.33;65.02;96104.09;5033889;28;20453;-67
2021/08/20 08:00:20;;;;;;;6.30;4.30;;;23.30;59.40;;;21.39;65.50;96103.06;5028663;28;20021;-67
2021/08/20 08:02:46;;;;;;;5.30;4.57;;;23.20;59.20;;;21.42;65.46;96101.72;5012778;28;20045;-68
2021/08/20 08:05:11;;;;;;;5.75;4.65;;;23.30;59.60;;;21.45;65.83;96106.56;5028972;28;20029;-67
2021/08/20 08:07:37;;;;;;;6.35;4.45;;;23.30;60.20;;;21.45;65.28;96103.88;5028477;28;20057;-68
2021/08/20 08:10:04;;;;;;;6.00;4.05;;;23.30;60.00;;;21.45;65.54;96115.41;5031815;28;20162;-67
2021/08/20 08:12:30;;;;;;;6.85;4.47;;;23.30;60.40;;;21.46;65.75;96113.53;5015417;28;20071;-67
2021/08/20 08:14:55;;;;;;;5.63;4.50;;;23.30;60.60;;;21.46;65.72;96114.31;5042077;28;20029;-67
2021/08/20 08:17:21;;;;;;;5.93;4.35;;;23.30;61.20;;;21.47;66.04;96115.13;5048027;28;20033;-67
2021/08/20 08:19:47;;;;;;;6.90;4.93;;;23.20;61.70;;;21.46;66.04;96127.72;5049524;28;20060;-68
2021/08/20 08:22:12;;;;;;;7.57;4.82;;;23.20;62.40;;;21.39;65.76;96125.25;5048690;28;20025;-67
2021/08/20 08:24:38;;;;;;;6.05;4.75;;;23.00;61.40;;;21.29;65.78;96119.84;5028826;28;20686;-68
2021/08/20 08:27:04;;;;;;;8.63;4.38;;;22.80;61.90;;;21.22;66.12;96134.44;5041571;28;20033;-68
2021/08/20 08:29:30;;;;;;;6.25;4.82;;;22.80;62.70;;;21.14;65.88;96138.41;5032567;28;20049;-68
2021/08/20 08:31:56;;;;;;;5.10;4.60;;;22.70;62.60;;;21.09;66.57;96136.50;5048226;28;20025;-68
2021/08/20 08:34:21;;;;;;;7.97;5.07;;;22.60;63.30;;;21.01;65.84;96144.16;5048346;28;20075;-68
2021/08/20 08:36:47;;;;;;;5.88;4.78;;;22.60;63.20;;;20.91;66.17;96139.53;5031959;28;20033;-68
2021/08/20 08:39:13;;;;;;;5.45;4.68;;;22.40;63.00;;;20.79;66.71;96139.69;5048430;28;20385;-68
2021/08/20 08:41:38;;;;;;;5.82;4.65;;;22.20;63.50;;;20.69;66.71;96142.25;5028915;28;20096;-68
2021/08/20 08:44:05;;;;;;;6.50;4.35;;;22.10;64.10;;;20.64;67.14;96138.72;4989540;28;20160;-68
2021/08/20 08:46:36;;;;;;;7.10;4.70;;;22.10;64.40;;;20.62;66.99;96138.97;5037624;28;20029;-68
2021/08/20 08:49:05;;;;;;;5.72;4.53;;;22.10;64.20;;;20.59;67.58;96131.44;5028348;28;20037;-67
2021/08/20 08:51:31;;;;;;;7.32;4.78;;;22.30;64.50;;;20.66;67.50;96140.09;5011172;28;20037;-67
2021/08/20 08:53:57;;;;;;;8.15;5.07;;;22.40;63.60;;;20.73;66.79;96138.00;5025096;28;20347;-68
2021/08/20 08:56:23;;;;;;;6.53;4.78;;;22.50;63.50;;;20.82;66.54;96130.38;5018427;28;20511;-67
2021/08/20 08:58:48;;;;;;;7.43;5.10;;;22.70;62.40;;;20.94;66.84;96132.88;5034721;28;20037;-68
2021/08/20 09:01:29;;;;;;;5.13;4.40;;;22.90;61.50;;;21.09;66.68;96135.69;5039576;28;20120;-68
2021/08/20 09:04:19;;;;;;;5.65;4.15;;;23.10;61.60;;;21.26;65.86;96125.69;5012297;28;20399;-69
2021/08/20 09:06:54;;;;;;;5.60;4.70;;;23.40;60.80;;;21.42;64.79;96123.13;5027899;28;20506;-68
2021/08/20 09:09:22;;;;;;;11.45;8.77;;;23.50;59.80;;;21.56;65.47;96121.63;5028017;28;20052;-68
2021/08/20 09:11:58;;;;;;;10.20;8.57;;;23.80;59.70;;;21.75;64.30;96125.50;5030788;28;20082;-67
2021/08/20 09:14:33;;;;;;;6.80;5.32;;;24.00;58.20;;;21.96;63.54;96126.44;5031411;28;20401;-67
2021/08/20 09:16:58;;;;;;;7.25;5.30;;;24.30;56.90;;;22.15;64.56;96124.94;5049226;28;20048;-67
2021/08/20 09:19:25;;;;;;;5.13;4.32;;;24.50;56.20;;;22.35;63.47;96128.75;4994741;28;20496;-68
2021/08/20 09:21:53;;;;;;;8.80;4.95;;;24.80;55.60;;;22.55;62.07;96120.78;5027820;28;20025;-67
2021/08/20 09:24:40;;;;;;;6.40;4.88;;;25.10;53.80;;;22.88;60.11;96125.75;4995468;28;20072;-68
2021/08/20 09:27:18;;;;;;;5.32;4.50;;;25.80;52.50;;;23.28;60.55;96126.00;5029357;28;20040;-68
2021/08/20 09:30:08;;;;;;;6.20;4.65;;;26.50;51.30;;;23.80;58.12;96115.00;5031186;28;20520;-68
2021/08/20 09:32:35;;;;;;;6.37;4.20;;;27.20;49.10;;;24.28;59.25;96121.59;5033291;28;20121;-68
2021/08/20 09:35:01;;;;;;;9.63;6.90;;;28.00;47.60;;;24.78;58.91;96117.03;5032043;28;20084;-67
2021/08/20 09:37:28;;;;;;;12.93;11.63;;;28.60;46.10;;;25.21;57.52;96114.63;5030976;28;20462;-69
2021/08/20 09:40:00;;;;;;;14.60;12.35;;;28.90;44.50;;;25.54;56.52;96111.09;5015223;28;20037;-68
2021/08/20 09:42:27;;;;;;;6.65;4.60;;;29.00;43.30;;;25.83;55.10;96105.75;5031642;28;20029;-68
2021/08/20 09:45:18;;;;;;;5.97;4.38;;;29.30;41.30;;;26.41;50.46;96115.59;5031883;28;20512;-68
2021/08/20 09:47:55;;;;;;;5.75;4.07;;;30.30;40.10;;;26.91;48.97;96110.59;5031269;28;20124;-69
2021/08/20 09:50:22;;;;;;;5.70;4.00;;;30.60;39.40;;;27.25;51.69;96111.19;5046914;28;20025;-68
2021/08/20 09:52:48;;;;;;;6.32;3.80;;;30.80;39.60;;;27.43;51.57;96110.38;5003309;28;20030;-68
2021/08/20 09:55:40;;;;;;;5.82;3.80;;;30.60;38.90;;;27.59;47.18;96107.38;4997094;28;20037;-67
2021/08/20 09:58:08;;;;;;;5.82;3.78;;;30.50;38.80;;;27.67;50.82;96112.16;5017802;28;20045;-68
2021/08/20 10:00:33;;;;;;;9.40;3.70;;;30.70;39.80;;;27.82;50.29;96109.16;5047415;28;20029;-68
2021/08/20 10:03:00;;;;;;;5.95;4.03;;;31.00;39.40;;;27.87;50.18;96100.97;5031535;28;20036;-68
2021/08/20 10:05:26;;;;;;;5.70;3.75;;;31.00;37.80;;;27.99;48.72;96103.97;5030975;28;20041;-69
2021/08/20 10:07:51;;;;;;;4.53;3.53;;;31.10;37.80;;;28.12;48.35;96107.00;5014780;28;20053;-68
2021/08/20 10:10:17;;;;;;;7.45;3.35;;;31.20;37.20;;;28.35;47.54;96101.41;5036006;28;20037;-68
2021/08/20 10:12:43;;;;;;;4.97;4.07;;;31.80;36.40;;;28.47;46.93;96100.88;5014913;28;20037;-69
2021/08/20 10:15:09;;;;;;;7.80;4.47;;;31.80;36.40;;;28.81;46.70;96102.31;5031255;28;20044;-68